sensor_id;sensor_type;location;lat;lon;timestamp;P1;durP1;ratioP1;P2;durP2;ratioP2
11123;SDS011;5616;42.692;23.312;2023-11-21T00:00:01;29.13;;;18.63;;
11123;SDS011;5616;42.692;23.312;2023-11-21T00:02:38;31.07;;;19.10;;
11123;SDS011;5616;42.692;23.312;2023-11-21T00:05:07;29.37;;;19.33;;
11123;SDS011;5616;42.692;23.312;2023-11-21T00:07:35;36.03;;;20.33;;
11123;SDS011;5616;42.692;23.312;2023-11-21T00:10:02;30.23;;;20.63;;
11123;SDS011;5616;42.692;23.312;2023-11-21T00:12:30;31.63;;;20.13;;
11123;SDS011;5616;42.692;23.312;2023-11-21T00:14:58;31.87;;;20.30;;
11123;SDS011;5616;42.692;23.312;2023-11-21T00:17:25;32.17;;;20.87;;
11123;SDS011;5616;42.692;23.312;2023-11-21T00:19:52;32.57;;;19.97;;
11123;SDS011;5616;42.692;23.312;2023-11-21T00:22:20;35.07;;;20.93;;
11123;SDS011;5616;42.692;23.312;2023-11-21T00:24:47;32.10;;;21.37;;
11123;SDS011;5616;42.692;23.312;2023-11-21T00:27:14;34.17;;;22.27;;
11123;SDS011;5616;42.692;23.312;2023-11-21T00:29:41;33.93;;;22.07;;
11123;SDS011;5616;42.692;23.312;2023-11-21T00:32:07;35.30;;;21.70;;
11123;SDS011;5616;42.692;23.312;2023-11-21T00:34:35;34.07;;;21.87;;
11123;SDS011;5616;42.692;23.312;2023-11-21T00:37:02;35.47;;;23.97;;
11123;SDS011;5616;42.692;23.312;2023-11-21T00:39:30;36.10;;;24.03;;
11123;SDS011;5616;42.692;23.312;2023-11-21T00:41:58;32.47;;;23.30;;
11123;SDS011;5616;42.692;23.312;2023-11-21T00:44:25;35.83;;;23.67;;
11123;SDS011;5616;42.692;23.312;2023-11-21T00:46:52;36.70;;;24.60;;
11123;SDS011;5616;42.692;23.312;2023-11-21T00:49:19;32.30;;;22.27;;
11123;SDS011;5616;42.692;23.312;2023-11-21T00:51:48;37.90;;;23.87;;
11123;SDS011;5616;42.692;23.312;2023-11-21T00:54:15;34.20;;;22.63;;
11123;SDS011;5616;42.692;23.312;2023-11-21T00:56:43;35.20;;;22.00;;
11123;SDS011;5616;42.692;23.312;2023-11-21T00:59:12;34.97;;;22.43;;
11123;SDS011;5616;42.692;23.312;2023-11-21T01:01:40;34.20;;;22.70;;
11123;SDS011;5616;42.692;23.312;2023-11-21T01:04:07;33.30;;;22.10;;
11123;SDS011;5616;42.692;23.312;2023-11-21T01:06:34;29.97;;;20.10;;
11123;SDS011;5616;42.692;23.312;2023-11-21T01:09:01;38.67;;;21.40;;
11123;SDS011;5616;42.692;23.312;2023-11-21T01:11:33;31.07;;;20.47;;
11123;SDS011;5616;42.692;23.312;2023-11-21T01:14:03;29.93;;;19.60;;
11123;SDS011;5616;42.692;23.312;2023-11-21T01:16:31;28.03;;;19.47;;
11123;SDS011;5616;42.692;23.312;2023-11-21T01:18:58;27.30;;;18.90;;
11123;SDS011;5616;42.692;23.312;2023-11-21T01:21:25;26.80;;;18.07;;
11123;SDS011;5616;42.692;23.312;2023-11-21T01:23:53;25.37;;;17.17;;
11123;SDS011;5616;42.692;23.312;2023-11-21T01:26:20;25.77;;;17.60;;
11123;SDS011;5616;42.692;23.312;2023-11-21T01:28:47;26.27;;;18.47;;
11123;SDS011;5616;42.692;23.312;2023-11-21T01:31:16;25.00;;;17.17;;
11123;SDS011;5616;42.692;23.312;2023-11-21T01:33:43;28.07;;;16.97;;
11123;SDS011;5616;42.692;23.312;2023-11-21T01:36:10;24.57;;;16.50;;
11123;SDS011;5616;42.692;23.312;2023-11-21T01:38:37;26.30;;;16.67;;
11123;SDS011;5616;42.692;23.312;2023-11-21T01:41:04;27.93;;;17.07;;
11123;SDS011;5616;42.692;23.312;2023-11-21T01:43:31;22.30;;;16.57;;
11123;SDS011;5616;42.692;23.312;2023-11-21T01:45:59;22.07;;;15.77;;
11123;SDS011;5616;42.692;23.312;2023-11-21T01:48:27;25.43;;;16.53;;
11123;SDS011;5616;42.692;23.312;2023-11-21T01:50:54;26.20;;;17.60;;
11123;SDS011;5616;42.692;23.312;2023-11-21T01:53:23;23.73;;;16.77;;
11123;SDS011;5616;42.692;23.312;2023-11-21T01:55:51;21.33;;;15.60;;
11123;SDS011;5616;42.692;23.312;2023-11-21T01:58:19;21.77;;;15.57;;
11123;SDS011;5616;42.692;23.312;2023-11-21T02:00:47;24.77;;;16.77;;
11123;SDS011;5616;42.692;23.312;2023-11-21T02:03:18;29.17;;;17.77;;
11123;SDS011;5616;42.692;23.312;2023-11-21T02:05:46;25.17;;;17.73;;
11123;SDS011;5616;42.692;23.312;2023-11-21T02:08:13;24.07;;;16.57;;
11123;SDS011;5616;42.692;23.312;2023-11-21T02:10:40;27.67;;;17.53;;
11123;SDS011;5616;42.692;23.312;2023-11-21T02:13:06;26.20;;;17.53;;
11123;SDS011;5616;42.692;23.312;2023-11-21T02:15:33;27.77;;;17.50;;
11123;SDS011;5616;42.692;23.312;2023-11-21T02:18:00;26.63;;;17.60;;
11123;SDS011;5616;42.692;23.312;2023-11-21T02:20:28;25.17;;;17.20;;
11123;SDS011;5616;42.692;23.312;2023-11-21T02:22:57;26.73;;;17.53;;
11123;SDS011;5616;42.692;23.312;2023-11-21T02:25:24;27.53;;;16.90;;
11123;SDS011;5616;42.692;23.312;2023-11-21T02:27:52;23.33;;;16.67;;
11123;SDS011;5616;42.692;23.312;2023-11-21T02:30:20;21.53;;;15.63;;
11123;SDS011;5616;42.692;23.312;2023-11-21T02:32:47;27.07;;;16.67;;
11123;SDS011;5616;42.692;23.312;2023-11-21T02:35:14;23.30;;;15.53;;
11123;SDS011;5616;42.692;23.312;2023-11-21T02:37:42;23.07;;;15.43;;
11123;SDS011;5616;42.692;23.312;2023-11-21T02:40:10;23.87;;;16.07;;
11123;SDS011;5616;42.692;23.312;2023-11-21T02:42:39;24.20;;;16.57;;
11123;SDS011;5616;42.692;23.312;2023-11-21T02:45:06;24.90;;;16.87;;
11123;SDS011;5616;42.692;23.312;2023-11-21T02:47:34;25.00;;;16.63;;
11123;SDS011;5616;42.692;23.312;2023-11-21T02:50:01;24.30;;;16.53;;
11123;SDS011;5616;42.692;23.312;2023-11-21T02:52:28;24.57;;;17.17;;
11123;SDS011;5616;42.692;23.312;2023-11-21T02:54:58;24.33;;;16.70;;
11123;SDS011;5616;42.692;23.312;2023-11-21T02:57:26;26.87;;;17.30;;
11123;SDS011;5616;42.692;23.312;2023-11-21T02:59:53;26.43;;;17.60;;
11123;SDS011;5616;42.692;23.312;2023-11-21T03:02:20;22.80;;;16.10;;
11123;SDS011;5616;42.692;23.312;2023-11-21T03:04:48;24.80;;;17.07;;
11123;SDS011;5616;42.692;23.312;2023-11-21T03:07:15;25.97;;;16.33;;
11123;SDS011;5616;42.692;23.312;2023-11-21T03:09:42;23.30;;;15.83;;
11123;SDS011;5616;42.692;23.312;2023-11-21T03:12:10;24.77;;;16.50;;
11123;SDS011;5616;42.692;23.312;2023-11-21T03:14:38;25.17;;;17.53;;
11123;SDS011;5616;42.692;23.312;2023-11-21T03:17:05;25.73;;;19.13;;
11123;SDS011;5616;42.692;23.312;2023-11-21T03:19:32;23.37;;;17.13;;
11123;SDS011;5616;42.692;23.312;2023-11-21T03:21:59;28.30;;;17.83;;
11123;SDS011;5616;42.692;23.312;2023-11-21T03:24:26;23.53;;;15.83;;
11123;SDS011;5616;42.692;23.312;2023-11-21T03:26:53;24.07;;;15.50;;
11123;SDS011;5616;42.692;23.312;2023-11-21T03:29:20;25.90;;;18.77;;
11123;SDS011;5616;42.692;23.312;2023-11-21T03:31:49;22.93;;;15.63;;
11123;SDS011;5616;42.692;23.312;2023-11-21T03:34:23;25.80;;;15.47;;
11123;SDS011;5616;42.692;23.312;2023-11-21T03:36:52;20.33;;;14.20;;
11123;SDS011;5616;42.692;23.312;2023-11-21T03:39:19;19.60;;;14.70;;
11123;SDS011;5616;42.692;23.312;2023-11-21T03:41:48;20.43;;;14.53;;
11123;SDS011;5616;42.692;23.312;2023-11-21T03:44:17;19.30;;;14.30;;
11123;SDS011;5616;42.692;23.312;2023-11-21T03:46:44;22.33;;;17.20;;
11123;SDS011;5616;42.692;23.312;2023-11-21T03:49:12;19.57;;;13.93;;
11123;SDS011;5616;42.692;23.312;2023-11-21T03:51:40;18.93;;;13.80;;
11123;SDS011;5616;42.692;23.312;2023-11-21T03:54:07;20.27;;;14.20;;
11123;SDS011;5616;42.692;23.312;2023-11-21T03:56:37;19.60;;;13.57;;
11123;SDS011;5616;42.692;23.312;2023-11-21T03:59:04;16.27;;;12.50;;
11123;SDS011;5616;42.692;23.312;2023-11-21T04:01:31;18.00;;;12.23;;
11123;SDS011;5616;42.692;23.312;2023-11-21T04:03:58;14.67;;;11.10;;
11123;SDS011;5616;42.692;23.312;2023-11-21T04:06:26;16.23;;;11.00;;
11123;SDS011;5616;42.692;23.312;2023-11-21T04:08:53;14.73;;;10.20;;
11123;SDS011;5616;42.692;23.312;2023-11-21T04:11:19;11.43;;;8.47;;
11123;SDS011;5616;42.692;23.312;2023-11-21T04:13:46;11.33;;;8.07;;
11123;SDS011;5616;42.692;23.312;2023-11-21T04:16:13;13.87;;;8.70;;
11123;SDS011;5616;42.692;23.312;2023-11-21T04:18:40;13.10;;;9.33;;
11123;SDS011;5616;42.692;23.312;2023-11-21T04:21:07;12.53;;;9.23;;
11123;SDS011;5616;42.692;23.312;2023-11-21T04:23:36;13.53;;;9.40;;
11123;SDS011;5616;42.692;23.312;2023-11-21T04:26:02;17.67;;;10.03;;
11123;SDS011;5616;42.692;23.312;2023-11-21T04:28:29;13.90;;;11.00;;
11123;SDS011;5616;42.692;23.312;2023-11-21T04:30:56;14.93;;;11.47;;
11123;SDS011;5616;42.692;23.312;2023-11-21T04:33:23;19.63;;;12.77;;
11123;SDS011;5616;42.692;23.312;2023-11-21T04:35:50;17.23;;;10.90;;
11123;SDS011;5616;42.692;23.312;2023-11-21T04:38:17;14.77;;;11.30;;
11123;SDS011;5616;42.692;23.312;2023-11-21T04:40:46;16.90;;;12.60;;
11123;SDS011;5616;42.692;23.312;2023-11-21T04:43:12;19.37;;;11.57;;
11123;SDS011;5616;42.692;23.312;2023-11-21T04:45:39;15.83;;;11.13;;
11123;SDS011;5616;42.692;23.312;2023-11-21T04:48:06;15.20;;;10.30;;
11123;SDS011;5616;42.692;23.312;2023-11-21T04:50:33;15.67;;;10.70;;
11123;SDS011;5616;42.692;23.312;2023-11-21T04:53:00;15.63;;;10.37;;
11123;SDS011;5616;42.692;23.312;2023-11-21T04:55:27;16.77;;;10.37;;
11123;SDS011;5616;42.692;23.312;2023-11-21T04:57:56;17.33;;;11.40;;
11123;SDS011;5616;42.692;23.312;2023-11-21T05:00:22;18.47;;;10.63;;
11123;SDS011;5616;42.692;23.312;2023-11-21T05:02:49;17.30;;;11.20;;
11123;SDS011;5616;42.692;23.312;2023-11-21T05:05:17;19.47;;;12.60;;
11123;SDS011;5616;42.692;23.312;2023-11-21T05:07:44;17.27;;;12.20;;
11123;SDS011;5616;42.692;23.312;2023-11-21T05:10:11;17.33;;;12.03;;
11123;SDS011;5616;42.692;23.312;2023-11-21T05:12:40;17.27;;;12.83;;
11123;SDS011;5616;42.692;23.312;2023-11-21T05:15:09;20.07;;;12.60;;
11123;SDS011;5616;42.692;23.312;2023-11-21T05:17:40;17.87;;;12.13;;
11123;SDS011;5616;42.692;23.312;2023-11-21T05:20:08;19.03;;;12.43;;
11123;SDS011;5616;42.692;23.312;2023-11-21T05:22:36;17.07;;;11.60;;
11123;SDS011;5616;42.692;23.312;2023-11-21T05:25:04;19.20;;;12.53;;
11123;SDS011;5616;42.692;23.312;2023-11-21T05:27:32;16.67;;;11.53;;
11123;SDS011;5616;42.692;23.312;2023-11-21T05:30:00;17.67;;;12.40;;
11123;SDS011;5616;42.692;23.312;2023-11-21T05:32:29;20.00;;;12.43;;
11123;SDS011;5616;42.692;23.312;2023-11-21T05:34:56;18.77;;;13.17;;
11123;SDS011;5616;42.692;23.312;2023-11-21T05:37:22;17.97;;;12.30;;
11123;SDS011;5616;42.692;23.312;2023-11-21T05:39:51;18.73;;;12.83;;
11123;SDS011;5616;42.692;23.312;2023-11-21T05:42:17;16.87;;;12.20;;
11123;SDS011;5616;42.692;23.312;2023-11-21T05:44:44;19.80;;;11.93;;
11123;SDS011;5616;42.692;23.312;2023-11-21T05:47:11;28.47;;;12.53;;
11123;SDS011;5616;42.692;23.312;2023-11-21T05:49:40;17.03;;;11.83;;
11123;SDS011;5616;42.692;23.312;2023-11-21T05:52:07;16.73;;;11.87;;
11123;SDS011;5616;42.692;23.312;2023-11-21T05:54:35;17.47;;;11.83;;
11123;SDS011;5616;42.692;23.312;2023-11-21T05:57:02;18.37;;;12.27;;
11123;SDS011;5616;42.692;23.312;2023-11-21T05:59:29;19.90;;;12.97;;
11123;SDS011;5616;42.692;23.312;2023-11-21T06:01:56;21.33;;;12.23;;
11123;SDS011;5616;42.692;23.312;2023-11-21T06:04:26;22.93;;;13.57;;
11123;SDS011;5616;42.692;23.312;2023-11-21T06:06:55;20.20;;;13.90;;
11123;SDS011;5616;42.692;23.312;2023-11-21T06:09:21;21.60;;;13.97;;
11123;SDS011;5616;42.692;23.312;2023-11-21T06:11:49;20.47;;;13.20;;
11123;SDS011;5616;42.692;23.312;2023-11-21T06:14:19;21.97;;;13.47;;
11123;SDS011;5616;42.692;23.312;2023-11-21T06:16:47;20.70;;;13.27;;
11123;SDS011;5616;42.692;23.312;2023-11-21T06:19:16;18.60;;;13.37;;
11123;SDS011;5616;42.692;23.312;2023-11-21T06:21:45;20.97;;;13.57;;
11123;SDS011;5616;42.692;23.312;2023-11-21T06:24:13;21.97;;;13.30;;
11123;SDS011;5616;42.692;23.312;2023-11-21T06:26:41;18.73;;;12.90;;
11123;SDS011;5616;42.692;23.312;2023-11-21T06:29:09;21.37;;;12.93;;
11123;SDS011;5616;42.692;23.312;2023-11-21T06:31:36;18.80;;;13.03;;
11123;SDS011;5616;42.692;23.312;2023-11-21T06:34:03;17.23;;;12.47;;
11123;SDS011;5616;42.692;23.312;2023-11-21T06:36:30;19.17;;;13.10;;
11123;SDS011;5616;42.692;23.312;2023-11-21T06:38:56;22.60;;;13.20;;
11123;SDS011;5616;42.692;23.312;2023-11-21T06:41:25;19.70;;;14.80;;
11123;SDS011;5616;42.692;23.312;2023-11-21T06:43:51;25.07;;;15.20;;
11123;SDS011;5616;42.692;23.312;2023-11-21T06:46:18;24.87;;;16.80;;
11123;SDS011;5616;42.692;23.312;2023-11-21T06:48:45;26.47;;;17.97;;
11123;SDS011;5616;42.692;23.312;2023-11-21T06:51:13;22.90;;;16.73;;
11123;SDS011;5616;42.692;23.312;2023-11-21T06:53:40;23.70;;;16.27;;
11123;SDS011;5616;42.692;23.312;2023-11-21T06:56:14;22.27;;;15.63;;
11123;SDS011;5616;42.692;23.312;2023-11-21T06:58:43;23.97;;;16.97;;
11123;SDS011;5616;42.692;23.312;2023-11-21T07:01:11;23.50;;;16.93;;
11123;SDS011;5616;42.692;23.312;2023-11-21T07:03:38;21.23;;;17.23;;
11123;SDS011;5616;42.692;23.312;2023-11-21T07:06:06;24.47;;;16.73;;
11123;SDS011;5616;42.692;23.312;2023-11-21T07:08:33;22.90;;;17.10;;
11123;SDS011;5616;42.692;23.312;2023-11-21T07:11:00;25.77;;;16.90;;
11123;SDS011;5616;42.692;23.312;2023-11-21T07:13:28;24.13;;;16.83;;
11123;SDS011;5616;42.692;23.312;2023-11-21T07:15:57;25.07;;;16.63;;
11123;SDS011;5616;42.692;23.312;2023-11-21T07:18:24;25.60;;;16.80;;
11123;SDS011;5616;42.692;23.312;2023-11-21T07:20:51;23.20;;;16.23;;
11123;SDS011;5616;42.692;23.312;2023-11-21T07:23:18;25.50;;;15.97;;
11123;SDS011;5616;42.692;23.312;2023-11-21T07:25:45;21.97;;;16.13;;
11123;SDS011;5616;42.692;23.312;2023-11-21T07:28:12;27.60;;;16.60;;
11123;SDS011;5616;42.692;23.312;2023-11-21T07:30:39;24.13;;;15.87;;
11123;SDS011;5616;42.692;23.312;2023-11-21T07:33:07;27.03;;;16.73;;
11123;SDS011;5616;42.692;23.312;2023-11-21T07:35:34;25.30;;;16.27;;
11123;SDS011;5616;42.692;23.312;2023-11-21T07:38:01;27.50;;;16.97;;
11123;SDS011;5616;42.692;23.312;2023-11-21T07:40:29;28.03;;;16.90;;
11123;SDS011;5616;42.692;23.312;2023-11-21T07:42:55;25.70;;;16.53;;
11123;SDS011;5616;42.692;23.312;2023-11-21T07:45:22;23.90;;;15.93;;
11123;SDS011;5616;42.692;23.312;2023-11-21T07:47:49;24.50;;;15.30;;
11123;SDS011;5616;42.692;23.312;2023-11-21T07:50:17;27.10;;;15.67;;
11123;SDS011;5616;42.692;23.312;2023-11-21T07:52:45;24.10;;;15.90;;
11123;SDS011;5616;42.692;23.312;2023-11-21T07:55:12;23.43;;;15.90;;
11123;SDS011;5616;42.692;23.312;2023-11-21T07:57:39;23.53;;;15.33;;
11123;SDS011;5616;42.692;23.312;2023-11-21T08:00:06;22.83;;;15.63;;
11123;SDS011;5616;42.692;23.312;2023-11-21T08:02:39;27.27;;;16.30;;
11123;SDS011;5616;42.692;23.312;2023-11-21T08:05:07;25.40;;;14.97;;
11123;SDS011;5616;42.692;23.312;2023-11-21T08:07:37;24.10;;;17.23;;
11123;SDS011;5616;42.692;23.312;2023-11-21T08:10:04;22.83;;;14.50;;
11123;SDS011;5616;42.692;23.312;2023-11-21T08:12:32;14.27;;;10.67;;
11123;SDS011;5616;42.692;23.312;2023-11-21T08:14:59;14.53;;;11.30;;
11123;SDS011;5616;42.692;23.312;2023-11-21T08:17:27;23.03;;;13.33;;
11123;SDS011;5616;42.692;23.312;2023-11-21T08:19:54;27.53;;;16.60;;
11123;SDS011;5616;42.692;23.312;2023-11-21T08:22:21;28.20;;;15.63;;
11123;SDS011;5616;42.692;23.312;2023-11-21T08:24:49;27.97;;;16.17;;
11123;SDS011;5616;42.692;23.312;2023-11-21T08:27:17;21.17;;;14.20;;
11123;SDS011;5616;42.692;23.312;2023-11-21T08:29:44;23.10;;;14.93;;
11123;SDS011;5616;42.692;23.312;2023-11-21T08:32:11;21.57;;;15.03;;
11123;SDS011;5616;42.692;23.312;2023-11-21T08:34:38;28.93;;;13.77;;
11123;SDS011;5616;42.692;23.312;2023-11-21T08:37:08;21.10;;;14.33;;
11123;SDS011;5616;42.692;23.312;2023-11-21T08:39:36;23.37;;;14.30;;
11123;SDS011;5616;42.692;23.312;2023-11-21T08:42:05;24.30;;;15.73;;
11123;SDS011;5616;42.692;23.312;2023-11-21T08:44:33;26.55;;;17.30;;
11123;SDS011;5616;42.692;23.312;2023-11-21T08:47:00;29.37;;;19.20;;
11123;SDS011;5616;42.692;23.312;2023-11-21T08:49:27;30.17;;;19.80;;
11123;SDS011;5616;42.692;23.312;2023-11-21T08:51:54;49.93;;;27.40;;
11123;SDS011;5616;42.692;23.312;2023-11-21T08:54:23;27.70;;;20.30;;
11123;SDS011;5616;42.692;23.312;2023-11-21T08:56:50;69.53;;;34.87;;
11123;SDS011;5616;42.692;23.312;2023-11-21T08:59:19;32.63;;;21.37;;
11123;SDS011;5616;42.692;23.312;2023-11-21T09:01:45;30.30;;;20.67;;
11123;SDS011;5616;42.692;23.312;2023-11-21T09:04:12;28.87;;;20.17;;
11123;SDS011;5616;42.692;23.312;2023-11-21T09:06:39;30.70;;;19.33;;
11123;SDS011;5616;42.692;23.312;2023-11-21T09:09:06;26.73;;;18.73;;
11123;SDS011;5616;42.692;23.312;2023-11-21T09:11:35;30.43;;;19.43;;
11123;SDS011;5616;42.692;23.312;2023-11-21T09:14:02;26.67;;;18.37;;
11123;SDS011;5616;42.692;23.312;2023-11-21T09:16:31;29.23;;;19.07;;
11123;SDS011;5616;42.692;23.312;2023-11-21T09:18:58;31.40;;;20.27;;
11123;SDS011;5616;42.692;23.312;2023-11-21T09:21:25;29.33;;;20.33;;
11123;SDS011;5616;42.692;23.312;2023-11-21T09:23:52;31.80;;;20.17;;
11123;SDS011;5616;42.692;23.312;2023-11-21T09:26:19;26.47;;;18.57;;
11123;SDS011;5616;42.692;23.312;2023-11-21T09:28:46;25.97;;;18.40;;
11123;SDS011;5616;42.692;23.312;2023-11-21T09:31:13;33.17;;;19.20;;
11123;SDS011;5616;42.692;23.312;2023-11-21T09:33:42;24.90;;;17.50;;
11123;SDS011;5616;42.692;23.312;2023-11-21T09:36:11;26.10;;;17.60;;
11123;SDS011;5616;42.692;23.312;2023-11-21T09:38:39;26.00;;;17.83;;
11123;SDS011;5616;42.692;23.312;2023-11-21T09:41:09;18.10;;;14.73;;
11123;SDS011;5616;42.692;23.312;2023-11-21T09:43:44;22.73;;;15.33;;
11123;SDS011;5616;42.692;23.312;2023-11-21T09:46:12;25.57;;;15.97;;
11123;SDS011;5616;42.692;23.312;2023-11-21T09:48:47;50.40;;;27.97;;
11123;SDS011;5616;42.692;23.312;2023-11-21T09:51:17;37.73;;;20.00;;
11123;SDS011;5616;42.692;23.312;2023-11-21T09:53:48;25.27;;;18.23;;
11123;SDS011;5616;42.692;23.312;2023-11-21T09:56:18;28.80;;;18.97;;
11123;SDS011;5616;42.692;23.312;2023-11-21T09:58:50;24.83;;;18.97;;
11123;SDS011;5616;42.692;23.312;2023-11-21T10:01:19;27.80;;;18.23;;
11123;SDS011;5616;42.692;23.312;2023-11-21T10:03:48;27.10;;;19.40;;
11123;SDS011;5616;42.692;23.312;2023-11-21T10:06:15;33.90;;;18.83;;
11123;SDS011;5616;42.692;23.312;2023-11-21T10:08:44;30.10;;;19.03;;
11123;SDS011;5616;42.692;23.312;2023-11-21T10:11:13;26.73;;;18.80;;
11123;SDS011;5616;42.692;23.312;2023-11-21T10:13:41;27.53;;;17.83;;
11123;SDS011;5616;42.692;23.312;2023-11-21T10:16:11;29.17;;;17.30;;
11123;SDS011;5616;42.692;23.312;2023-11-21T10:18:42;30.30;;;17.93;;
11123;SDS011;5616;42.692;23.312;2023-11-21T10:21:12;20.30;;;15.67;;
11123;SDS011;5616;42.692;23.312;2023-11-21T10:23:40;40.90;;;22.27;;
11123;SDS011;5616;42.692;23.312;2023-11-21T10:26:08;27.23;;;18.27;;
11123;SDS011;5616;42.692;23.312;2023-11-21T10:28:41;22.47;;;15.53;;
11123;SDS011;5616;42.692;23.312;2023-11-21T10:31:08;22.33;;;15.53;;
11123;SDS011;5616;42.692;23.312;2023-11-21T10:33:35;27.17;;;17.47;;
11123;SDS011;5616;42.692;23.312;2023-11-21T10:36:02;24.23;;;18.87;;
11123;SDS011;5616;42.692;23.312;2023-11-21T10:38:35;28.17;;;18.20;;
11123;SDS011;5616;42.692;23.312;2023-11-21T10:41:11;28.43;;;19.57;;
11123;SDS011;5616;42.692;23.312;2023-11-21T10:43:40;27.67;;;20.20;;
11123;SDS011;5616;42.692;23.312;2023-11-21T10:46:07;27.93;;;19.53;;
11123;SDS011;5616;42.692;23.312;2023-11-21T10:48:34;29.70;;;18.97;;
11123;SDS011;5616;42.692;23.312;2023-11-21T10:51:01;27.37;;;18.87;;
11123;SDS011;5616;42.692;23.312;2023-11-21T10:53:39;26.33;;;19.27;;
11123;SDS011;5616;42.692;23.312;2023-11-21T10:56:08;27.90;;;17.30;;
11123;SDS011;5616;42.692;23.312;2023-11-21T10:58:38;21.43;;;15.93;;
11123;SDS011;5616;42.692;23.312;2023-11-21T11:01:06;20.33;;;14.07;;
11123;SDS011;5616;42.692;23.312;2023-11-21T11:03:36;21.27;;;14.30;;
11123;SDS011;5616;42.692;23.312;2023-11-21T11:06:05;21.07;;;13.70;;
11123;SDS011;5616;42.692;23.312;2023-11-21T11:08:37;17.50;;;11.37;;
11123;SDS011;5616;42.692;23.312;2023-11-21T11:11:05;13.63;;;10.50;;
11123;SDS011;5616;42.692;23.312;2023-11-21T11:13:33;14.03;;;10.37;;
11123;SDS011;5616;42.692;23.312;2023-11-21T11:16:00;26.00;;;14.40;;
11123;SDS011;5616;42.692;23.312;2023-11-21T11:18:29;17.07;;;11.23;;
11123;SDS011;5616;42.692;23.312;2023-11-21T11:20:57;16.43;;;11.97;;
11123;SDS011;5616;42.692;23.312;2023-11-21T11:23:38;15.97;;;10.70;;
11123;SDS011;5616;42.692;23.312;2023-11-21T11:26:22;13.03;;;9.17;;
11123;SDS011;5616;42.692;23.312;2023-11-21T11:29:00;13.90;;;9.23;;
11123;SDS011;5616;42.692;23.312;2023-11-21T11:31:37;15.00;;;11.63;;
11123;SDS011;5616;42.692;23.312;2023-11-21T11:34:20;17.03;;;11.80;;
11123;SDS011;5616;42.692;23.312;2023-11-21T11:36:56;18.63;;;12.37;;
11123;SDS011;5616;42.692;23.312;2023-11-21T11:39:31;21.07;;;12.97;;
11123;SDS011;5616;42.692;23.312;2023-11-21T11:42:02;19.97;;;12.87;;
11123;SDS011;5616;42.692;23.312;2023-11-21T11:44:47;19.23;;;13.43;;
11123;SDS011;5616;42.692;23.312;2023-11-21T11:47:16;18.07;;;12.80;;
11123;SDS011;5616;42.692;23.312;2023-11-21T11:49:56;19.03;;;13.60;;
11123;SDS011;5616;42.692;23.312;2023-11-21T11:52:34;16.37;;;11.90;;
11123;SDS011;5616;42.692;23.312;2023-11-21T11:55:03;20.73;;;12.57;;
11123;SDS011;5616;42.692;23.312;2023-11-21T11:57:30;19.93;;;12.90;;
11123;SDS011;5616;42.692;23.312;2023-11-21T12:00:14;21.97;;;12.03;;
11123;SDS011;5616;42.692;23.312;2023-11-21T12:02:47;18.73;;;12.50;;
11123;SDS011;5616;42.692;23.312;2023-11-21T12:05:15;17.87;;;12.47;;
11123;SDS011;5616;42.692;23.312;2023-11-21T12:07:47;21.43;;;12.70;;
11123;SDS011;5616;42.692;23.312;2023-11-21T12:10:20;18.63;;;12.63;;
11123;SDS011;5616;42.692;23.312;2023-11-21T12:12:50;19.23;;;13.60;;
11123;SDS011;5616;42.692;23.312;2023-11-21T12:15:18;19.33;;;13.57;;
11123;SDS011;5616;42.692;23.312;2023-11-21T12:17:46;22.90;;;15.67;;
11123;SDS011;5616;42.692;23.312;2023-11-21T12:20:14;20.93;;;15.30;;
11123;SDS011;5616;42.692;23.312;2023-11-21T12:22:43;22.27;;;15.33;;
11123;SDS011;5616;42.692;23.312;2023-11-21T12:25:14;24.37;;;17.17;;
11123;SDS011;5616;42.692;23.312;2023-11-21T12:27:45;24.27;;;17.23;;
11123;SDS011;5616;42.692;23.312;2023-11-21T12:30:15;23.90;;;16.87;;
11123;SDS011;5616;42.692;23.312;2023-11-21T12:32:43;21.27;;;16.20;;
11123;SDS011;5616;42.692;23.312;2023-11-21T12:35:11;22.27;;;16.23;;
11123;SDS011;5616;42.692;23.312;2023-11-21T12:37:38;20.63;;;16.00;;
11123;SDS011;5616;42.692;23.312;2023-11-21T12:40:08;20.37;;;15.93;;
11123;SDS011;5616;42.692;23.312;2023-11-21T12:42:37;20.83;;;13.63;;
11123;SDS011;5616;42.692;23.312;2023-11-21T12:45:11;21.10;;;14.90;;
11123;SDS011;5616;42.692;23.312;2023-11-21T12:47:46;19.70;;;14.63;;
11123;SDS011;5616;42.692;23.312;2023-11-21T12:50:14;20.30;;;15.43;;
11123;SDS011;5616;42.692;23.312;2023-11-21T12:52:41;20.17;;;14.40;;
11123;SDS011;5616;42.692;23.312;2023-11-21T12:55:16;20.43;;;15.30;;
11123;SDS011;5616;42.692;23.312;2023-11-21T12:57:43;18.57;;;14.60;;
11123;SDS011;5616;42.692;23.312;2023-11-21T13:00:13;18.77;;;13.23;;
11123;SDS011;5616;42.692;23.312;2023-11-21T13:02:52;15.97;;;11.83;;
11123;SDS011;5616;42.692;23.312;2023-11-21T13:05:26;15.00;;;11.67;;
11123;SDS011;5616;42.692;23.312;2023-11-21T13:07:54;15.23;;;12.50;;
11123;SDS011;5616;42.692;23.312;2023-11-21T13:10:23;14.63;;;11.60;;
11123;SDS011;5616;42.692;23.312;2023-11-21T13:12:54;17.27;;;12.67;;
11123;SDS011;5616;42.692;23.312;2023-11-21T13:15:24;18.63;;;12.63;;
11123;SDS011;5616;42.692;23.312;2023-11-21T13:17:52;17.40;;;12.00;;
11123;SDS011;5616;42.692;23.312;2023-11-21T13:20:21;18.00;;;11.87;;
11123;SDS011;5616;42.692;23.312;2023-11-21T13:22:49;17.23;;;12.17;;
11123;SDS011;5616;42.692;23.312;2023-11-21T13:25:19;18.10;;;12.33;;
11123;SDS011;5616;42.692;23.312;2023-11-21T13:27:47;18.53;;;11.90;;
11123;SDS011;5616;42.692;23.312;2023-11-21T13:30:14;17.93;;;12.03;;
11123;SDS011;5616;42.692;23.312;2023-11-21T13:32:43;15.90;;;11.17;;
11123;SDS011;5616;42.692;23.312;2023-11-21T13:35:11;14.70;;;10.67;;
11123;SDS011;5616;42.692;23.312;2023-11-21T13:37:48;16.03;;;10.20;;
11123;SDS011;5616;42.692;23.312;2023-11-21T13:40:19;13.37;;;10.53;;
11123;SDS011;5616;42.692;23.312;2023-11-21T13:42:51;13.03;;;10.03;;
11123;SDS011;5616;42.692;23.312;2023-11-21T13:45:24;15.53;;;9.63;;
11123;SDS011;5616;42.692;23.312;2023-11-21T13:47:54;14.80;;;10.17;;
11123;SDS011;5616;42.692;23.312;2023-11-21T13:50:24;12.30;;;9.90;;
11123;SDS011;5616;42.692;23.312;2023-11-21T13:52:55;18.77;;;11.30;;
11123;SDS011;5616;42.692;23.312;2023-11-21T13:55:23;13.13;;;11.00;;
11123;SDS011;5616;42.692;23.312;2023-11-21T13:57:50;15.60;;;12.17;;
11123;SDS011;5616;42.692;23.312;2023-11-21T14:00:18;17.07;;;11.77;;
11123;SDS011;5616;42.692;23.312;2023-11-21T14:03:04;23.87;;;14.50;;
11123;SDS011;5616;42.692;23.312;2023-11-21T14:05:36;18.40;;;14.20;;
11123;SDS011;5616;42.692;23.312;2023-11-21T14:08:04;19.03;;;14.30;;
11123;SDS011;5616;42.692;23.312;2023-11-21T14:10:31;20.10;;;14.83;;
11123;SDS011;5616;42.692;23.312;2023-11-21T14:13:05;19.47;;;14.67;;
11123;SDS011;5616;42.692;23.312;2023-11-21T14:15:32;16.73;;;14.17;;
11123;SDS011;5616;42.692;23.312;2023-11-21T14:18:02;22.47;;;15.50;;
11123;SDS011;5616;42.692;23.312;2023-11-21T14:20:35;23.03;;;15.93;;
11123;SDS011;5616;42.692;23.312;2023-11-21T14:23:02;19.30;;;14.47;;
11123;SDS011;5616;42.692;23.312;2023-11-21T14:25:31;23.53;;;15.97;;
11123;SDS011;5616;42.692;23.312;2023-11-21T14:27:58;22.17;;;16.67;;